sensor_id;sensor_type;location;lat;lon;timestamp;P1;durP1;ratioP1;P2;durP2;ratioP2
11111;SDS011;5609;49.466;8.468;2023-04-24T00:01:23;2.10;;;1.40;;
11111;SDS011;5609;49.466;8.468;2023-04-24T00:03:50;2.03;;;1.40;;
11111;SDS011;5609;49.466;8.468;2023-04-24T00:06:17;1.53;;;1.33;;
11111;SDS011;5609;49.466;8.468;2023-04-24T00:08:44;2.80;;;1.30;;
11111;SDS011;5609;49.466;8.468;2023-04-24T00:11:12;1.37;;;1.23;;
11111;SDS011;5609;49.466;8.468;2023-04-24T00:13:39;2.70;;;1.33;;
11111;SDS011;5609;49.466;8.468;2023-04-24T00:16:05;1.87;;;1.50;;
11111;SDS011;5609;49.466;8.468;2023-04-24T00:18:32;1.90;;;1.53;;
11111;SDS011;5609;49.466;8.468;2023-04-24T00:20:59;3.47;;;1.77;;
11111;SDS011;5609;49.466;8.468;2023-04-24T00:23:26;1.93;;;1.50;;
11111;SDS011;5609;49.466;8.468;2023-04-24T00:25:52;2.30;;;1.50;;
11111;SDS011;5609;49.466;8.468;2023-04-24T00:28:20;2.43;;;1.90;;
11111;SDS011;5609;49.466;8.468;2023-04-24T00:30:47;2.53;;;1.90;;
11111;SDS011;5609;49.466;8.468;2023-04-24T00:33:14;3.23;;;1.80;;
11111;SDS011;5609;49.466;8.468;2023-04-24T00:35:40;2.00;;;1.80;;
11111;SDS011;5609;49.466;8.468;2023-04-24T00:38:07;2.43;;;1.70;;
11111;SDS011;5609;49.466;8.468;2023-04-24T00:40:34;2.73;;;1.87;;
11111;SDS011;5609;49.466;8.468;2023-04-24T00:43:01;3.70;;;1.70;;
11111;SDS011;5609;49.466;8.468;2023-04-24T00:45:29;3.90;;;1.90;;
11111;SDS011;5609;49.466;8.468;2023-04-24T00:47:56;2.97;;;2.00;;
11111;SDS011;5609;49.466;8.468;2023-04-24T00:50:24;2.00;;;1.60;;
11111;SDS011;5609;49.466;8.468;2023-04-24T00:52:51;2.00;;;1.70;;
11111;SDS011;5609;49.466;8.468;2023-04-24T00:55:18;3.80;;;1.63;;
11111;SDS011;5609;49.466;8.468;2023-04-24T00:57:46;3.00;;;1.73;;
11111;SDS011;5609;49.466;8.468;2023-04-24T01:00:13;2.00;;;1.50;;
11111;SDS011;5609;49.466;8.468;2023-04-24T01:02:42;2.53;;;1.70;;
11111;SDS011;5609;49.466;8.468;2023-04-24T01:05:10;2.27;;;1.77;;
11111;SDS011;5609;49.466;8.468;2023-04-24T01:07:38;1.77;;;1.63;;
11111;SDS011;5609;49.466;8.468;2023-04-24T01:10:09;2.20;;;1.70;;
11111;SDS011;5609;49.466;8.468;2023-04-24T01:12:36;2.10;;;1.67;;
11111;SDS011;5609;49.466;8.468;2023-04-24T01:15:03;2.73;;;1.80;;
11111;SDS011;5609;49.466;8.468;2023-04-24T01:17:31;2.40;;;1.70;;
11111;SDS011;5609;49.466;8.468;2023-04-24T01:19:59;2.20;;;1.70;;
11111;SDS011;5609;49.466;8.468;2023-04-24T01:22:32;2.63;;;1.60;;
11111;SDS011;5609;49.466;8.468;2023-04-24T01:24:59;2.27;;;1.70;;
11111;SDS011;5609;49.466;8.468;2023-04-24T01:27:26;3.00;;;1.70;;
11111;SDS011;5609;49.466;8.468;2023-04-24T01:29:52;2.57;;;1.80;;
11111;SDS011;5609;49.466;8.468;2023-04-24T01:32:19;3.60;;;1.80;;
11111;SDS011;5609;49.466;8.468;2023-04-24T01:34:46;2.93;;;1.80;;
11111;SDS011;5609;49.466;8.468;2023-04-24T01:37:14;2.87;;;1.63;;
11111;SDS011;5609;49.466;8.468;2023-04-24T01:39:43;2.67;;;1.60;;
11111;SDS011;5609;49.466;8.468;2023-04-24T01:42:09;2.67;;;1.57;;
11111;SDS011;5609;49.466;8.468;2023-04-24T01:44:37;2.73;;;1.60;;
11111;SDS011;5609;49.466;8.468;2023-04-24T01:47:04;4.27;;;1.70;;
11111;SDS011;5609;49.466;8.468;2023-04-24T01:49:32;2.87;;;1.60;;
11111;SDS011;5609;49.466;8.468;2023-04-24T01:51:59;3.73;;;1.67;;
11111;SDS011;5609;49.466;8.468;2023-04-24T01:54:27;2.93;;;1.70;;
11111;SDS011;5609;49.466;8.468;2023-04-24T01:56:55;1.93;;;1.50;;
11111;SDS011;5609;49.466;8.468;2023-04-24T01:59:22;1.60;;;1.50;;
11111;SDS011;5609;49.466;8.468;2023-04-24T02:01:51;2.33;;;1.73;;
11111;SDS011;5609;49.466;8.468;2023-04-24T02:04:18;3.17;;;1.63;;
11111;SDS011;5609;49.466;8.468;2023-04-24T02:06:44;1.90;;;1.50;;
11111;SDS011;5609;49.466;8.468;2023-04-24T02:09:11;2.27;;;1.53;;
11111;SDS011;5609;49.466;8.468;2023-04-24T02:11:38;3.07;;;1.70;;
11111;SDS011;5609;49.466;8.468;2023-04-24T02:14:06;1.60;;;1.50;;
11111;SDS011;5609;49.466;8.468;2023-04-24T02:16:33;2.17;;;1.40;;
11111;SDS011;5609;49.466;8.468;2023-04-24T02:19:00;2.47;;;1.50;;
11111;SDS011;5609;49.466;8.468;2023-04-24T02:21:27;2.07;;;1.43;;
11111;SDS011;5609;49.466;8.468;2023-04-24T02:23:55;1.90;;;1.30;;
11111;SDS011;5609;49.466;8.468;2023-04-24T02:26:22;2.93;;;1.40;;
11111;SDS011;5609;49.466;8.468;2023-04-24T02:28:49;3.00;;;1.50;;
11111;SDS011;5609;49.466;8.468;2023-04-24T02:31:17;2.27;;;1.30;;
11111;SDS011;5609;49.466;8.468;2023-04-24T02:33:44;1.80;;;1.40;;
11111;SDS011;5609;49.466;8.468;2023-04-24T02:36:11;2.40;;;1.70;;
11111;SDS011;5609;49.466;8.468;2023-04-24T02:38:39;1.90;;;1.50;;
11111;SDS011;5609;49.466;8.468;2023-04-24T02:41:05;3.33;;;1.60;;
11111;SDS011;5609;49.466;8.468;2023-04-24T02:43:32;2.83;;;1.40;;
11111;SDS011;5609;49.466;8.468;2023-04-24T02:45:59;3.73;;;1.60;;
11111;SDS011;5609;49.466;8.468;2023-04-24T02:48:27;1.80;;;1.40;;
11111;SDS011;5609;49.466;8.468;2023-04-24T02:50:54;1.77;;;1.50;;
11111;SDS011;5609;49.466;8.468;2023-04-24T02:53:22;3.10;;;1.50;;
11111;SDS011;5609;49.466;8.468;2023-04-24T02:55:49;3.33;;;1.60;;
11111;SDS011;5609;49.466;8.468;2023-04-24T02:58:16;2.63;;;1.60;;
11111;SDS011;5609;49.466;8.468;2023-04-24T03:00:44;2.50;;;1.60;;
11111;SDS011;5609;49.466;8.468;2023-04-24T03:03:11;2.43;;;1.80;;
11111;SDS011;5609;49.466;8.468;2023-04-24T03:05:39;4.63;;;1.90;;
11111;SDS011;5609;49.466;8.468;2023-04-24T03:08:06;7.73;;;2.33;;
11111;SDS011;5609;49.466;8.468;2023-04-24T03:10:33;2.83;;;2.50;;
11111;SDS011;5609;49.466;8.468;2023-04-24T03:12:59;3.80;;;2.33;;
11111;SDS011;5609;49.466;8.468;2023-04-24T03:15:26;3.70;;;2.37;;
11111;SDS011;5609;49.466;8.468;2023-04-24T03:17:53;3.13;;;2.03;;
11111;SDS011;5609;49.466;8.468;2023-04-24T03:20:20;3.37;;;1.80;;
11111;SDS011;5609;49.466;8.468;2023-04-24T03:22:48;2.80;;;1.80;;
11111;SDS011;5609;49.466;8.468;2023-04-24T03:25:15;2.70;;;1.87;;
11111;SDS011;5609;49.466;8.468;2023-04-24T03:27:42;4.17;;;1.90;;
11111;SDS011;5609;49.466;8.468;2023-04-24T03:30:08;2.47;;;1.80;;
11111;SDS011;5609;49.466;8.468;2023-04-24T03:32:35;2.63;;;1.80;;
11111;SDS011;5609;49.466;8.468;2023-04-24T03:35:04;3.00;;;1.97;;
11111;SDS011;5609;49.466;8.468;2023-04-24T03:37:32;4.13;;;1.70;;
11111;SDS011;5609;49.466;8.468;2023-04-24T03:40:00;4.93;;;1.70;;
11111;SDS011;5609;49.466;8.468;2023-04-24T03:42:27;2.73;;;1.70;;
11111;SDS011;5609;49.466;8.468;2023-04-24T03:44:53;5.90;;;2.00;;
11111;SDS011;5609;49.466;8.468;2023-04-24T03:47:20;3.70;;;2.10;;
11111;SDS011;5609;49.466;8.468;2023-04-24T03:49:47;3.77;;;2.20;;
11111;SDS011;5609;49.466;8.468;2023-04-24T03:52:13;2.27;;;2.03;;
11111;SDS011;5609;49.466;8.468;2023-04-24T03:54:40;1.83;;;1.70;;
11111;SDS011;5609;49.466;8.468;2023-04-24T03:57:08;2.90;;;1.80;;
11111;SDS011;5609;49.466;8.468;2023-04-24T03:59:35;1.60;;;1.50;;
11111;SDS011;5609;49.466;8.468;2023-04-24T04:02:04;1.97;;;1.80;;
11111;SDS011;5609;49.466;8.468;2023-04-24T04:04:31;2.10;;;1.90;;
11111;SDS011;5609;49.466;8.468;2023-04-24T04:06:57;2.20;;;1.87;;
11111;SDS011;5609;49.466;8.468;2023-04-24T04:09:26;2.70;;;2.00;;
11111;SDS011;5609;49.466;8.468;2023-04-24T04:11:53;2.50;;;2.00;;
11111;SDS011;5609;49.466;8.468;2023-04-24T04:14:21;3.30;;;2.00;;
11111;SDS011;5609;49.466;8.468;2023-04-24T04:16:48;4.20;;;2.20;;
11111;SDS011;5609;49.466;8.468;2023-04-24T04:19:15;2.83;;;2.10;;
11111;SDS011;5609;49.466;8.468;2023-04-24T04:21:41;3.77;;;2.00;;
11111;SDS011;5609;49.466;8.468;2023-04-24T04:24:10;3.13;;;2.30;;
11111;SDS011;5609;49.466;8.468;2023-04-24T04:26:37;4.23;;;2.83;;
11111;SDS011;5609;49.466;8.468;2023-04-24T04:29:05;3.20;;;2.30;;
11111;SDS011;5609;49.466;8.468;2023-04-24T04:31:33;2.97;;;2.47;;
11111;SDS011;5609;49.466;8.468;2023-04-24T04:34:01;2.40;;;2.10;;
11111;SDS011;5609;49.466;8.468;2023-04-24T04:36:28;2.67;;;2.10;;
11111;SDS011;5609;49.466;8.468;2023-04-24T04:38:55;2.57;;;2.10;;
11111;SDS011;5609;49.466;8.468;2023-04-24T04:41:24;2.63;;;2.27;;
11111;SDS011;5609;49.466;8.468;2023-04-24T04:43:51;2.60;;;2.40;;
11111;SDS011;5609;49.466;8.468;2023-04-24T04:46:17;2.80;;;2.43;;
11111;SDS011;5609;49.466;8.468;2023-04-24T04:48:45;2.73;;;2.47;;
11111;SDS011;5609;49.466;8.468;2023-04-24T04:51:12;2.53;;;2.33;;
11111;SDS011;5609;49.466;8.468;2023-04-24T04:53:39;2.60;;;2.40;;
11111;SDS011;5609;49.466;8.468;2023-04-24T04:56:06;2.67;;;2.47;;
11111;SDS011;5609;49.466;8.468;2023-04-24T04:58:33;2.87;;;2.57;;
11111;SDS011;5609;49.466;8.468;2023-04-24T05:01:00;9.17;;;3.00;;
11111;SDS011;5609;49.466;8.468;2023-04-24T05:03:27;3.03;;;2.63;;
11111;SDS011;5609;49.466;8.468;2023-04-24T05:05:55;3.00;;;2.70;;
11111;SDS011;5609;49.466;8.468;2023-04-24T05:08:23;3.23;;;2.63;;
11111;SDS011;5609;49.466;8.468;2023-04-24T05:10:50;2.90;;;2.70;;
11111;SDS011;5609;49.466;8.468;2023-04-24T05:13:17;3.40;;;3.10;;
11111;SDS011;5609;49.466;8.468;2023-04-24T05:15:43;4.63;;;2.90;;
11111;SDS011;5609;49.466;8.468;2023-04-24T05:18:10;3.30;;;3.00;;
11111;SDS011;5609;49.466;8.468;2023-04-24T05:20:37;3.23;;;2.93;;
11111;SDS011;5609;49.466;8.468;2023-04-24T05:23:05;3.27;;;2.90;;
11111;SDS011;5609;49.466;8.468;2023-04-24T05:25:32;3.63;;;2.80;;
11111;SDS011;5609;49.466;8.468;2023-04-24T05:28:00;3.43;;;3.13;;
11111;SDS011;5609;49.466;8.468;2023-04-24T05:30:27;3.47;;;3.17;;
11111;SDS011;5609;49.466;8.468;2023-04-24T05:32:53;4.90;;;3.63;;
11111;SDS011;5609;49.466;8.468;2023-04-24T05:35:20;5.20;;;3.40;;
11111;SDS011;5609;49.466;8.468;2023-04-24T05:37:47;6.53;;;3.70;;
11111;SDS011;5609;49.466;8.468;2023-04-24T05:40:15;6.80;;;3.87;;
11111;SDS011;5609;49.466;8.468;2023-04-24T05:42:42;4.00;;;3.60;;
11111;SDS011;5609;49.466;8.468;2023-04-24T05:45:08;7.67;;;4.10;;
11111;SDS011;5609;49.466;8.468;2023-04-24T05:47:41;4.43;;;4.03;;
11111;SDS011;5609;49.466;8.468;2023-04-24T05:50:08;6.27;;;3.80;;
11111;SDS011;5609;49.466;8.468;2023-04-24T05:52:35;4.80;;;4.30;;
11111;SDS011;5609;49.466;8.468;2023-04-24T05:55:02;5.47;;;3.77;;
11111;SDS011;5609;49.466;8.468;2023-04-24T05:57:31;6.23;;;3.87;;
11111;SDS011;5609;49.466;8.468;2023-04-24T05:59:58;5.10;;;4.20;;
11111;SDS011;5609;49.466;8.468;2023-04-24T06:02:25;4.13;;;3.73;;
11111;SDS011;5609;49.466;8.468;2023-04-24T06:04:52;5.47;;;3.63;;
11111;SDS011;5609;49.466;8.468;2023-04-24T06:07:19;3.83;;;3.40;;
11111;SDS011;5609;49.466;8.468;2023-04-24T06:09:46;5.73;;;3.80;;
11111;SDS011;5609;49.466;8.468;2023-04-24T06:12:13;4.63;;;3.43;;
11111;SDS011;5609;49.466;8.468;2023-04-24T06:14:41;3.83;;;3.40;;
11111;SDS011;5609;49.466;8.468;2023-04-24T06:17:07;4.50;;;3.00;;
11111;SDS011;5609;49.466;8.468;2023-04-24T06:19:34;4.07;;;3.67;;
11111;SDS011;5609;49.466;8.468;2023-04-24T06:22:01;3.63;;;3.33;;
11111;SDS011;5609;49.466;8.468;2023-04-24T06:24:28;3.33;;;3.03;;
11111;SDS011;5609;49.466;8.468;2023-04-24T06:26:55;3.60;;;3.30;;
11111;SDS011;5609;49.466;8.468;2023-04-24T06:29:23;3.50;;;3.20;;
11111;SDS011;5609;49.466;8.468;2023-04-24T06:31:52;3.90;;;3.50;;
11111;SDS011;5609;49.466;8.468;2023-04-24T06:34:18;3.30;;;3.00;;
11111;SDS011;5609;49.466;8.468;2023-04-24T06:36:46;3.27;;;2.90;;
11111;SDS011;5609;49.466;8.468;2023-04-24T06:39:13;3.23;;;2.90;;
11111;SDS011;5609;49.466;8.468;2023-04-24T06:41:39;2.90;;;2.40;;
11111;SDS011;5609;49.466;8.468;2023-04-24T06:44:06;3.37;;;2.67;;
11111;SDS011;5609;49.466;8.468;2023-04-24T06:46:33;2.70;;;2.20;;
11111;SDS011;5609;49.466;8.468;2023-04-24T06:49:01;3.43;;;2.40;;
11111;SDS011;5609;49.466;8.468;2023-04-24T06:51:28;3.03;;;2.30;;
11111;SDS011;5609;49.466;8.468;2023-04-24T06:53:56;4.97;;;2.10;;
11111;SDS011;5609;49.466;8.468;2023-04-24T06:56:23;2.63;;;2.00;;
11111;SDS011;5609;49.466;8.468;2023-04-24T06:58:50;3.17;;;2.03;;
11111;SDS011;5609;49.466;8.468;2023-04-24T07:01:17;1.80;;;1.63;;
11111;SDS011;5609;49.466;8.468;2023-04-24T07:03:44;1.83;;;1.60;;
11111;SDS011;5609;49.466;8.468;2023-04-24T07:06:12;2.33;;;1.97;;
11111;SDS011;5609;49.466;8.468;2023-04-24T07:08:39;2.37;;;1.60;;
11111;SDS011;5609;49.466;8.468;2023-04-24T07:11:07;2.83;;;1.53;;
11111;SDS011;5609;49.466;8.468;2023-04-24T07:13:34;3.03;;;1.60;;
11111;SDS011;5609;49.466;8.468;2023-04-24T07:16:01;2.73;;;1.80;;
11111;SDS011;5609;49.466;8.468;2023-04-24T07:18:28;2.53;;;1.60;;
11111;SDS011;5609;49.466;8.468;2023-04-24T07:20:55;2.03;;;1.40;;
11111;SDS011;5609;49.466;8.468;2023-04-24T07:23:23;2.33;;;1.40;;
11111;SDS011;5609;49.466;8.468;2023-04-24T07:25:50;3.60;;;1.53;;
11111;SDS011;5609;49.466;8.468;2023-04-24T07:28:16;2.53;;;1.50;;
11111;SDS011;5609;49.466;8.468;2023-04-24T07:30:43;2.40;;;1.43;;
11111;SDS011;5609;49.466;8.468;2023-04-24T07:33:10;2.13;;;1.53;;
11111;SDS011;5609;49.466;8.468;2023-04-24T07:35:38;1.60;;;1.50;;
11111;SDS011;5609;49.466;8.468;2023-04-24T07:38:05;1.50;;;1.40;;
11111;SDS011;5609;49.466;8.468;2023-04-24T07:40:33;1.70;;;1.60;;
11111;SDS011;5609;49.466;8.468;2023-04-24T07:42:59;2.20;;;1.70;;
11111;SDS011;5609;49.466;8.468;2023-04-24T07:45:26;4.53;;;1.80;;
11111;SDS011;5609;49.466;8.468;2023-04-24T07:47:53;3.47;;;1.90;;
11111;SDS011;5609;49.466;8.468;2023-04-24T07:50:20;2.23;;;1.77;;
11111;SDS011;5609;49.466;8.468;2023-04-24T07:52:47;2.43;;;2.03;;
11111;SDS011;5609;49.466;8.468;2023-04-24T07:55:14;2.07;;;1.67;;
11111;SDS011;5609;49.466;8.468;2023-04-24T07:57:42;2.50;;;1.90;;
11111;SDS011;5609;49.466;8.468;2023-04-24T08:00:09;2.10;;;1.90;;
11111;SDS011;5609;49.466;8.468;2023-04-24T08:02:37;2.83;;;1.90;;
11111;SDS011;5609;49.466;8.468;2023-04-24T08:05:04;2.70;;;1.67;;
11111;SDS011;5609;49.466;8.468;2023-04-24T08:07:31;1.93;;;1.73;;
11111;SDS011;5609;49.466;8.468;2023-04-24T08:09:58;2.97;;;1.83;;
11111;SDS011;5609;49.466;8.468;2023-04-24T08:12:25;3.10;;;1.90;;
11111;SDS011;5609;49.466;8.468;2023-04-24T08:14:53;3.10;;;1.90;;
11111;SDS011;5609;49.466;8.468;2023-04-24T08:17:20;3.13;;;1.80;;
11111;SDS011;5609;49.466;8.468;2023-04-24T08:19:47;2.70;;;2.00;;
11111;SDS011;5609;49.466;8.468;2023-04-24T08:22:14;3.93;;;1.80;;
11111;SDS011;5609;49.466;8.468;2023-04-24T08:24:41;3.30;;;1.70;;
11111;SDS011;5609;49.466;8.468;2023-04-24T08:27:08;2.50;;;1.70;;
11111;SDS011;5609;49.466;8.468;2023-04-24T08:29:35;4.23;;;1.80;;
11111;SDS011;5609;49.466;8.468;2023-04-24T08:32:03;2.83;;;1.80;;
11111;SDS011;5609;49.466;8.468;2023-04-24T08:34:30;2.67;;;1.90;;
11111;SDS011;5609;49.466;8.468;2023-04-24T08:36:57;2.97;;;2.20;;
11111;SDS011;5609;49.466;8.468;2023-04-24T08:39:24;2.33;;;2.10;;
11111;SDS011;5609;49.466;8.468;2023-04-24T08:41:50;3.23;;;2.10;;
11111;SDS011;5609;49.466;8.468;2023-04-24T08:44:19;2.30;;;2.00;;
11111;SDS011;5609;49.466;8.468;2023-04-24T08:46:46;2.93;;;2.20;;
11111;SDS011;5609;49.466;8.468;2023-04-24T08:49:15;4.00;;;1.90;;
11111;SDS011;5609;49.466;8.468;2023-04-24T08:51:43;4.23;;;2.00;;
11111;SDS011;5609;49.466;8.468;2023-04-24T08:54:12;3.33;;;2.03;;
11111;SDS011;5609;49.466;8.468;2023-04-24T08:56:39;3.10;;;1.87;;
11111;SDS011;5609;49.466;8.468;2023-04-24T08:59:09;3.50;;;1.90;;
11111;SDS011;5609;49.466;8.468;2023-04-24T09:01:37;2.47;;;1.80;;
11111;SDS011;5609;49.466;8.468;2023-04-24T09:04:05;2.67;;;1.83;;
11111;SDS011;5609;49.466;8.468;2023-04-24T09:06:36;2.87;;;1.77;;
11111;SDS011;5609;49.466;8.468;2023-04-24T09:09:03;3.63;;;2.30;;
11111;SDS011;5609;49.466;8.468;2023-04-24T09:11:30;3.03;;;2.20;;
11111;SDS011;5609;49.466;8.468;2023-04-24T09:13:57;3.67;;;2.00;;
11111;SDS011;5609;49.466;8.468;2023-04-24T09:16:25;2.87;;;1.93;;
11111;SDS011;5609;49.466;8.468;2023-04-24T09:18:53;3.40;;;2.00;;
11111;SDS011;5609;49.466;8.468;2023-04-24T09:21:20;3.80;;;1.80;;
11111;SDS011;5609;49.466;8.468;2023-04-24T09:23:58;2.90;;;2.17;;
11111;SDS011;5609;49.466;8.468;2023-04-24T09:26:26;3.03;;;1.90;;
11111;SDS011;5609;49.466;8.468;2023-04-24T09:28:56;3.47;;;2.10;;
11111;SDS011;5609;49.466;8.468;2023-04-24T09:31:24;4.30;;;1.97;;
11111;SDS011;5609;49.466;8.468;2023-04-24T09:33:54;4.00;;;2.20;;
11111;SDS011;5609;49.466;8.468;2023-04-24T09:36:26;2.60;;;2.10;;
11111;SDS011;5609;49.466;8.468;2023-04-24T09:38:58;2.10;;;1.90;;
11111;SDS011;5609;49.466;8.468;2023-04-24T09:41:26;2.80;;;2.03;;
11111;SDS011;5609;49.466;8.468;2023-04-24T09:43:54;2.63;;;2.00;;
11111;SDS011;5609;49.466;8.468;2023-04-24T09:46:21;3.20;;;2.00;;
11111;SDS011;5609;49.466;8.468;2023-04-24T09:48:56;2.50;;;2.23;;
11111;SDS011;5609;49.466;8.468;2023-04-24T09:51:32;3.03;;;2.30;;
11111;SDS011;5609;49.466;8.468;2023-04-24T09:54:03;3.63;;;2.50;;
11111;SDS011;5609;49.466;8.468;2023-04-24T09:56:32;3.70;;;2.30;;
11111;SDS011;5609;49.466;8.468;2023-04-24T09:59:05;2.77;;;2.13;;
11111;SDS011;5609;49.466;8.468;2023-04-24T10:01:33;4.93;;;2.30;;
11111;SDS011;5609;49.466;8.468;2023-04-24T10:04:00;3.73;;;2.20;;
11111;SDS011;5609;49.466;8.468;2023-04-24T10:06:31;5.60;;;2.60;;
11111;SDS011;5609;49.466;8.468;2023-04-24T10:08:59;6.73;;;2.40;;
11111;SDS011;5609;49.466;8.468;2023-04-24T10:11:28;3.97;;;1.97;;
11111;SDS011;5609;49.466;8.468;2023-04-24T10:13:56;2.93;;;1.90;;
11111;SDS011;5609;49.466;8.468;2023-04-24T10:16:23;3.83;;;1.80;;
11111;SDS011;5609;49.466;8.468;2023-04-24T10:18:52;2.73;;;1.80;;
11111;SDS011;5609;49.466;8.468;2023-04-24T10:21:19;2.73;;;1.73;;
11111;SDS011;5609;49.466;8.468;2023-04-24T10:23:46;5.07;;;1.90;;
11111;SDS011;5609;49.466;8.468;2023-04-24T10:26:15;2.73;;;1.80;;
11111;SDS011;5609;49.466;8.468;2023-04-24T10:28:46;5.00;;;1.60;;
11111;SDS011;5609;49.466;8.468;2023-04-24T10:31:13;5.57;;;1.67;;
11111;SDS011;5609;49.466;8.468;2023-04-24T10:33:41;1.97;;;1.77;;
11111;SDS011;5609;49.466;8.468;2023-04-24T10:36:08;2.13;;;1.93;;
11111;SDS011;5609;49.466;8.468;2023-04-24T10:38:37;3.57;;;2.00;;
11111;SDS011;5609;49.466;8.468;2023-04-24T10:41:06;2.97;;;2.00;;
11111;SDS011;5609;49.466;8.468;2023-04-24T10:43:35;1.97;;;1.80;;
11111;SDS011;5609;49.466;8.468;2023-04-24T10:46:04;1.97;;;1.60;;
11111;SDS011;5609;49.466;8.468;2023-04-24T10:48:31;1.83;;;1.70;;
11111;SDS011;5609;49.466;8.468;2023-04-24T10:50:58;3.03;;;2.00;;
11111;SDS011;5609;49.466;8.468;2023-04-24T10:53:27;2.17;;;1.93;;
11111;SDS011;5609;49.466;8.468;2023-04-24T10:55:57;2.10;;;1.90;;
11111;SDS011;5609;49.466;8.468;2023-04-24T10:58:35;1.97;;;1.80;;
11111;SDS011;5609;49.466;8.468;2023-04-24T11:01:04;2.27;;;1.70;;
11111;SDS011;5609;49.466;8.468;2023-04-24T11:03:32;2.27;;;2.00;;
11111;SDS011;5609;49.466;8.468;2023-04-24T11:06:01;2.40;;;2.20;;
11111;SDS011;5609;49.466;8.468;2023-04-24T11:08:30;2.20;;;2.00;;
11111;SDS011;5609;49.466;8.468;2023-04-24T11:10:59;2.63;;;2.30;;
11111;SDS011;5609;49.466;8.468;2023-04-24T11:16:29;2.60;;;2.10;;
11111;SDS011;5609;49.466;8.468;2023-04-24T11:19:01;3.83;;;2.27;;
11111;SDS011;5609;49.466;8.468;2023-04-24T11:21:38;6.77;;;3.00;;
11111;SDS011;5609;49.466;8.468;2023-04-24T11:24:26;4.97;;;2.70;;
11111;SDS011;5609;49.466;8.468;2023-04-24T11:26:57;3.40;;;2.60;;
11111;SDS011;5609;49.466;8.468;2023-04-24T11:29:37;2.83;;;2.53;;
11111;SDS011;5609;49.466;8.468;2023-04-24T11:32:17;2.93;;;2.70;;
11111;SDS011;5609;49.466;8.468;2023-04-24T11:34:46;3.17;;;2.73;;
11111;SDS011;5609;49.466;8.468;2023-04-24T11:37:14;4.80;;;2.83;;
11111;SDS011;5609;49.466;8.468;2023-04-24T11:39:41;3.57;;;2.97;;
11111;SDS011;5609;49.466;8.468;2023-04-24T11:42:07;4.10;;;2.80;;
11111;SDS011;5609;49.466;8.468;2023-04-24T11:44:35;3.70;;;2.80;;
11111;SDS011;5609;49.466;8.468;2023-04-24T11:47:02;5.33;;;2.97;;
11111;SDS011;5609;49.466;8.468;2023-04-24T11:49:30;3.57;;;3.00;;
11111;SDS011;5609;49.466;8.468;2023-04-24T11:51:57;3.13;;;2.80;;
11111;SDS011;5609;49.466;8.468;2023-04-24T11:54:25;4.03;;;3.13;;
11111;SDS011;5609;49.466;8.468;2023-04-24T11:56:52;5.63;;;3.30;;
11111;SDS011;5609;49.466;8.468;2023-04-24T11:59:19;5.00;;;3.10;;
11111;SDS011;5609;49.466;8.468;2023-04-24T12:01:45;4.20;;;2.70;;
11111;SDS011;5609;49.466;8.468;2023-04-24T12:04:12;7.70;;;3.23;;
11111;SDS011;5609;49.466;8.468;2023-04-24T12:06:41;3.80;;;2.97;;
11111;SDS011;5609;49.466;8.468;2023-04-24T12:09:25;6.30;;;3.10;;
11111;SDS011;5609;49.466;8.468;2023-04-24T12:11:52;3.57;;;2.83;;
11111;SDS011;5609;49.466;8.468;2023-04-24T12:14:20;5.80;;;2.60;;
11111;SDS011;5609;49.466;8.468;2023-04-24T12:16:47;5.40;;;2.63;;
11111;SDS011;5609;49.466;8.468;2023-04-24T12:19:17;5.33;;;2.67;;
11111;SDS011;5609;49.466;8.468;2023-04-24T12:21:46;4.00;;;2.70;;
11111;SDS011;5609;49.466;8.468;2023-04-24T12:24:25;4.83;;;2.80;;
11111;SDS011;5609;49.466;8.468;2023-04-24T12:26:52;4.87;;;2.87;;
11111;SDS011;5609;49.466;8.468;2023-04-24T12:29:19;3.40;;;3.10;;
11111;SDS011;5609;49.466;8.468;2023-04-24T12:31:46;6.03;;;2.70;;
11111;SDS011;5609;49.466;8.468;2023-04-24T12:34:22;4.83;;;3.10;;
11111;SDS011;5609;49.466;8.468;2023-04-24T12:36:51;4.73;;;2.70;;
11111;SDS011;5609;49.466;8.468;2023-04-24T12:39:18;5.47;;;3.33;;
11111;SDS011;5609;49.466;8.468;2023-04-24T12:41:50;4.57;;;2.97;;
11111;SDS011;5609;49.466;8.468;2023-04-24T12:44:28;3.93;;;2.70;;
11111;SDS011;5609;49.466;8.468;2023-04-24T12:46:55;7.60;;;3.10;;
11111;SDS011;5609;49.466;8.468;2023-04-24T12:49:22;4.80;;;3.10;;
11111;SDS011;5609;49.466;8.468;2023-04-24T12:51:48;7.00;;;3.13;;
11111;SDS011;5609;49.466;8.468;2023-04-24T12:54:16;5.17;;;3.00;;
11111;SDS011;5609;49.466;8.468;2023-04-24T12:56:43;5.37;;;2.70;;
11111;SDS011;5609;49.466;8.468;2023-04-24T12:59:10;5.93;;;3.27;;
11111;SDS011;5609;49.466;8.468;2023-04-24T13:01:37;5.87;;;3.33;;
11111;SDS011;5609;49.466;8.468;2023-04-24T13:04:04;6.73;;;3.23;;
11111;SDS011;5609;49.466;8.468;2023-04-24T13:06:31;4.77;;;3.10;;
11111;SDS011;5609;49.466;8.468;2023-04-24T13:08:58;4.43;;;3.20;;
11111;SDS011;5609;49.466;8.468;2023-04-24T13:11:26;3.33;;;2.90;;
11111;SDS011;5609;49.466;8.468;2023-04-24T13:13:52;4.93;;;2.83;;
11111;SDS011;5609;49.466;8.468;2023-04-24T13:16:19;5.80;;;3.07;;
11111;SDS011;5609;49.466;8.468;2023-04-24T13:18:48;4.57;;;2.77;;
11111;SDS011;5609;49.466;8.468;2023-04-24T13:21:14;6.03;;;3.00;;
11111;SDS011;5609;49.466;8.468;2023-04-24T13:23:41;4.70;;;3.10;;
11111;SDS011;5609;49.466;8.468;2023-04-24T13:26:08;3.80;;;2.83;;
11111;SDS011;5609;49.466;8.468;2023-04-24T13:28:36;2.63;;;2.43;;
11111;SDS011;5609;49.466;8.468;2023-04-24T13:31:03;2.93;;;2.40;;
11111;SDS011;5609;49.466;8.468;2023-04-24T13:33:31;3.77;;;2.63;;
11111;SDS011;5609;49.466;8.468;2023-04-24T13:35:58;3.90;;;2.67;;
11111;SDS011;5609;49.466;8.468;2023-04-24T13:38:24;2.67;;;2.47;;
11111;SDS011;5609;49.466;8.468;2023-04-24T13:40:51;5.27;;;2.90;;
11111;SDS011;5609;49.466;8.468;2023-04-24T13:43:18;4.43;;;2.67;;
11111;SDS011;5609;49.466;8.468;2023-04-24T13:45:46;4.43;;;2.83;;
11111;SDS011;5609;49.466;8.468;2023-04-24T13:48:13;2.83;;;2.63;;
11111;SDS011;5609;49.466;8.468;2023-04-24T13:50:40;3.27;;;2.50;;
11111;SDS011;5609;49.466;8.468;2023-04-24T13:53:07;3.07;;;2.70;;
11111;SDS011;5609;49.466;8.468;2023-04-24T13:55:34;3.53;;;2.80;;
11111;SDS011;5609;49.466;8.468;2023-04-24T13:58:01;5.97;;;3.23;;
11111;SDS011;5609;49.466;8.468;2023-04-24T14:00:28;3.37;;;2.57;;
11111;SDS011;5609;49.466;8.468;2023-04-24T14:02:57;5.60;;;2.50;;
11111;SDS011;5609;49.466;8.468;2023-04-24T14:05:24;2.97;;;2.67;;
11111;SDS011;5609;49.466;8.468;2023-04-24T14:07:50;3.90;;;2.77;;
11111;SDS011;5609;49.466;8.468;2023-04-24T14:10:17;2.93;;;2.50;;
11111;SDS011;5609;49.466;8.468;2023-04-24T14:12:44;4.47;;;2.80;;
11111;SDS011;5609;49.466;8.468;2023-04-24T14:15:11;4.73;;;2.97;;
11111;SDS011;5609;49.466;8.468;2023-04-24T14:17:38;4.13;;;2.60;;
11111;SDS011;5609;49.466;8.468;2023-04-24T14:20:07;4.07;;;2.77;;
11111;SDS011;5609;49.466;8.468;2023-04-24T14:22:34;3.80;;;2.70;;
11111;SDS011;5609;49.466;8.468;2023-04-24T14:25:01;3.27;;;2.53;;
11111;SDS011;5609;49.466;8.468;2023-04-24T14:27:28;5.00;;;2.97;;
11111;SDS011;5609;49.466;8.468;2023-04-24T14:29:55;4.80;;;3.00;;
11111;SDS011;5609;49.466;8.468;2023-04-24T14:32:22;4.33;;;3.13;;
11111;SDS011;5609;49.466;8.468;2023-04-24T14:34:48;3.30;;;2.70;;
11111;SDS011;5609;49.466;8.468;2023-04-24T14:37:17;5.00;;;2.73;;
11111;SDS011;5609;49.466;8.468;2023-04-24T14:39:44;4.17;;;2.73;;
11111;SDS011;5609;49.466;8.468;2023-04-24T14:42:11;3.03;;;2.63;;
11111;SDS011;5609;49.466;8.468;2023-04-24T14:44:38;4.57;;;2.57;;
11111;SDS011;5609;49.466;8.468;2023-04-24T14:47:05;3.23;;;2.37;;
11111;SDS011;5609;49.466;8.468;2023-04-24T14:49:32;3.47;;;2.17;;
11111;SDS011;5609;49.466;8.468;2023-04-24T14:51:58;6.53;;;3.10;;
11111;SDS011;5609;49.466;8.468;2023-04-24T14:54:26;4.67;;;2.63;;
11111;SDS011;5609;49.466;8.468;2023-04-24T14:56:54;3.43;;;2.60;;
11111;SDS011;5609;49.466;8.468;2023-04-24T14:59:21;2.93;;;2.63;;
11111;SDS011;5609;49.466;8.468;2023-04-24T15:01:48;3.13;;;2.50;;
11111;SDS011;5609;49.466;8.468;2023-04-24T15:04:16;2.50;;;2.30;;
11111;SDS011;5609;49.466;8.468;2023-04-24T15:06:43;2.60;;;2.40;;